Time;durP1;ratioP1;P1;durP2;ratioP2;P2;SDS_P1;SDS_P2;PMS_P1;PMS_P2;Temp;Humidity;BMP_temperature;BMP_pressure;BME280_temperature;BME280_humidity;BME280_pressure;Samples;Min_cycle;Max_cycle;Signal;HPM_P1;HPM_P2
2021/09/04 00:01:13;;;;;;;31.65;24.45;;;19.10;99.90;;;;;;5739615;24;20475;-76
2021/09/04 00:03:53;;;;;;;29.45;24.10;;;19.10;99.90;;;;;;5772304;24;20022;-75
2021/09/04 00:06:34;;;;;;;31.38;25.20;;;19.10;99.90;;;;;;5771800;24;20051;-76
2021/09/04 00:09:21;;;;;;;32.70;24.85;;;19.00;99.90;;;;;;5806875;24;20030;-76
2021/09/04 00:12:05;;;;;;;;;;;;;;;;;;;;;
2021/09/04 00:15:41;;;;;;;31.13;23.90;;;19.10;99.90;;;;;;5811621;24;20121;-76
2021/09/04 00:18:39;;;;;;;;;;;;;;;;;;;;;
2021/09/04 00:21:42;;;;;;;32.75;25.17;;;18.90;99.90;;;;;;5734444;24;20113;-78
2021/09/04 00:24:27;;;;;;;28.73;25.50;;;18.90;99.90;;;;;;5717958;24;20058;-78
2021/09/04 00:27:54;;;;;;;;;;;;;;;;;;;;;
2021/09/04 00:30:44;;;;;;;35.47;26.33;;;18.90;99.90;;;;;;5737621;24;20024;-77
2021/09/04 00:33:35;;;;;;;34.47;26.80;;;18.80;99.90;;;;;;5755436;24;20031;-77
2021/09/04 00:36:14;;;;;;;36.05;25.10;;;18.80;99.90;;;;;;5819036;24;20023;-76
2021/09/04 00:38:45;;;;;;;34.88;26.55;;;18.80;99.90;;;;;;5819946;24;20033;-76
2021/09/04 00:41:18;;;;;;;30.50;24.90;;;18.70;99.90;;;;;;5829740;24;20083;-77
2021/09/04 00:43:59;;;;;;;32.90;26.00;;;18.70;99.90;;;;;;5826295;24;20464;-76
2021/09/04 00:46:32;;;;;;;37.55;27.90;;;18.70;99.90;;;;;;5912061;24;20035;-77
2021/09/04 00:49:08;;;;;;;33.80;26.73;;;18.70;99.90;;;;;;5924959;24;20021;-76
2021/09/04 00:51:48;;;;;;;35.47;28.33;;;18.70;99.90;;;;;;5905669;24;20035;-77
2021/09/04 00:54:17;;;;;;;34.70;28.23;;;18.60;99.90;;;;;;5924495;24;20021;-76
2021/09/04 00:57:13;;;;;;;35.88;28.27;;;18.60;99.90;;;;;;5881930;24;20066;-77
2021/09/04 01:00:32;;;;;;;;;;;;;;;;;;;;;
2021/09/04 01:03:34;;;;;;;32.80;27.38;;;18.60;99.90;;;;;;5874411;24;20494;-77
2021/09/04 01:06:17;;;;;;;37.72;28.13;;;18.70;99.90;;;;;;5956218;23;20107;-77
2021/09/04 01:08:53;;;;;;;;;;;18.70;99.90;;;;;;6058182;23;20089;-76
2021/09/04 01:11:43;;;;;;;35.85;27.33;;;18.70;99.90;;;;;;6065137;23;19917;-76
2021/09/04 01:14:22;;;;;;;36.35;28.17;;;18.70;99.90;;;;;;6056676;23;20050;-76
2021/09/04 01:28:58;;;;;;;38.15;28.58;;;18.70;99.90;;;;;;6093179;23;20341;-76
2021/09/04 01:31:40;;;;;;;;;;;;;;;;;;;;;
2021/09/04 01:34:36;;;;;;;;;;;18.70;99.90;;;;;;5968193;24;20024;-76
2021/09/04 01:37:20;;;;;;;35.78;27.60;;;18.70;99.90;;;;;;5937637;24;19919;-76
2021/09/04 01:40:17;;;;;;;36.13;28.65;;;18.70;99.90;;;;;;5932858;24;20024;-76
2021/09/04 01:43:17;;;;;;;;;;;;;;;;;;;;;
2021/09/04 01:46:15;;;;;;;33.17;27.48;;;18.70;99.90;;;;;;5978689;23;20047;-76
2021/09/04 01:49:25;;;;;;;38.08;27.33;;;18.70;99.90;;;;;;5812097;24;20045;-77
2021/09/04 01:52:27;;;;;;;33.03;25.92;;;18.70;99.90;;;;;;5778653;24;20152;-77
2021/09/04 01:56:00;;;;;;;35.33;27.48;;;18.60;99.90;;;;;;5803557;24;20075;-77
2021/09/04 01:58:53;;;;;;;33.92;26.55;;;18.60;99.90;;;;;;5799297;24;20054;-76
2021/09/04 02:01:36;;;;;;;;;;;;;;;;;;;;;
2021/09/04 02:04:21;;;;;;;;;;;;;;;;;;;;;
2021/09/04 02:07:08;;;;;;;;;;;;;;;;;;;;;
2021/09/04 02:10:20;;;;;;;;;;;;;;;;;;;;;
2021/09/04 02:13:17;;;;;;;36.45;28.33;;;18.60;99.90;;;;;;6078832;23;20022;-76
2021/09/04 02:16:20;;;;;;;38.72;28.50;;;18.50;99.90;;;;;;6025645;23;20331;-76
2021/09/04 02:19:23;;;;;;;38.78;27.92;;;18.50;99.90;;;;;;5999425;23;20023;-76
2021/09/04 02:22:17;;;;;;;32.25;27.40;;;18.50;99.90;;;;;;6001690;23;20390;-76
2021/09/04 02:25:05;;;;;;;;;;;;;;;;;;;;;
2021/09/04 02:31:41;;;;;;;36.97;28.48;;;18.50;99.90;;;;;;5766087;24;20038;-77
2021/09/04 02:38:02;;;;;;;42.53;29.30;;;18.50;99.90;;;;;;5642711;25;20033;-77
2021/09/04 02:40:44;;;;;;;37.45;29.17;;;18.50;99.90;;;;;;5613034;25;20036;-77
2021/09/04 02:46:57;;;;;;;37.40;28.52;;;18.50;99.90;;;;;;5683279;24;20126;-76
2021/09/04 03:11:03;;;;;;;33.80;25.00;;;18.50;99.90;;;;;;5030849;28;20128;-77
2021/09/04 03:14:07;;;;;;;34.67;27.17;;;18.30;99.90;;;;;;5017961;28;20510;-77
2021/09/04 03:17:07;;;;;;;37.58;27.02;;;18.30;99.90;;;;;;4998146;28;20042;-77
2021/09/04 03:19:37;;;;;;;34.67;26.13;;;18.30;99.90;;;;;;5018623;28;20060;-76
2021/09/04 03:22:24;;;;;;;33.92;27.55;;;18.30;99.90;;;;;;5018517;28;20073;-77
2021/09/04 03:25:32;;;;;;;39.30;28.05;;;18.30;99.90;;;;;;5020871;28;20453;-77
2021/09/04 03:28:20;;;;;;;;;;;;;;;;;;;;;
2021/09/04 03:31:07;;;;;;;33.30;26.25;;;18.30;99.90;;;;;;5017733;28;20061;-77
2021/09/04 03:34:02;;;;;;;;;;;;;;;;;;;;;
2021/09/04 03:36:52;;;;;;;32.90;26.98;;;18.30;99.90;;;;;;4987075;28;20061;-77
2021/09/04 03:39:40;;;;;;;;;;;;;;;;;;;;;
2021/09/04 03:42:43;;;;;;;32.92;26.85;;;18.30;99.90;;;;;;5017303;28;20107;-77
2021/09/04 03:45:22;;;;;;;34.67;25.80;;;18.30;99.90;;;;;;4985974;28;20045;-77
2021/09/04 03:48:25;;;;;;;33.03;25.50;;;18.30;99.90;;;;;;5030703;28;20133;-77
2021/09/04 03:51:43;;;;;;;;;;;;;;;;;;;;;
2021/09/04 03:54:43;;;;;;;;;;;;;;;;;;;;;
2021/09/04 03:57:30;;;;;;;31.13;25.92;;;18.30;99.90;;;;;;4944792;28;20503;-77
2021/09/04 04:00:41;;;;;;;30.27;25.13;;;18.30;99.90;;;;;;4972510;28;20042;-77
2021/09/04 04:03:44;;;;;;;31.75;25.20;;;18.30;99.90;;;;;;4962392;28;20050;-77
2021/09/04 04:06:52;;;;;;;31.58;24.42;;;18.40;99.90;;;;;;4899533;29;20081;-77
2021/09/04 04:09:21;;;;;;;29.50;24.40;;;18.40;99.90;;;;;;4916832;28;20055;-77
2021/09/04 04:12:37;;;;;;;33.85;24.05;;;18.40;99.90;;;;;;4926159;28;20134;-77
2021/09/04 04:15:14;;;;;;;25.08;22.23;;;18.40;99.90;;;;;;4934387;28;20039;-77
2021/09/04 04:18:20;;;;;;;30.98;24.08;;;18.40;99.90;;;;;;4934879;28;20047;-77
2021/09/04 04:21:06;;;;;;;31.63;23.33;;;18.40;99.90;;;;;;4931392;28;20134;-77
2021/09/04 04:23:48;;;;;;;24.58;22.00;;;18.40;99.90;;;;;;4935313;28;20051;-77
2021/09/04 04:29:39;;;;;;;30.17;23.65;;;18.40;99.90;;;;;;4989786;28;20048;-77
2021/09/04 04:32:38;;;;;;;27.98;23.63;;;18.40;99.90;;;;;;4995928;28;20372;-77
2021/09/04 04:35:33;;;;;;;30.10;24.60;;;18.40;99.90;;;;;;4974188;28;20060;-77
2021/09/04 04:38:27;;;;;;;27.02;24.02;;;18.40;99.90;;;;;;4970047;28;20077;-77
2021/09/04 04:41:27;;;;;;;;;;;;;;;;;;;;;
2021/09/04 04:44:22;;;;;;;34.83;24.15;;;18.40;99.90;;;;;;4945624;28;20047;-76
2021/09/04 04:50:42;;;;;;;31.00;24.60;;;18.40;99.90;;;;;;4921622;28;20495;-76
2021/09/04 04:53:24;;;;;;;33.60;24.98;;;18.30;99.90;;;;;;4932070;28;20051;-76
2021/09/04 04:56:06;;;;;;;29.02;24.45;;;18.40;99.90;;;;;;4938487;28;20043;-76
2021/09/04 04:59:08;;;;;;;30.42;25.30;;;18.30;99.90;;;;;;4915089;28;20133;-76
2021/09/04 05:02:12;;;;;;;33.40;25.17;;;18.40;99.90;;;;;;4878834;28;20479;-76
2021/09/04 05:04:43;;;;;;;32.42;24.88;;;18.40;99.90;;;;;;4885118;29;20836;-76
2021/09/04 05:07:28;;;;;;;;;;;;;;;;;;;;;
2021/09/04 05:10:10;;;;;;;;;;;;;;;;;;;;;
2021/09/04 05:12:58;;;;;;;30.33;25.00;;;18.40;99.90;;;;;;4881552;29;20052;-77
2021/09/04 05:16:23;;;;;;;30.67;25.60;;;18.30;99.90;;;;;;4848816;29;20052;-77
2021/09/04 05:19:36;;;;;;;;;;;;;;;;;;;;;
2021/09/04 05:23:04;;;;;;;;;;;;;;;;;;;;;
2021/09/04 05:26:16;;;;;;;31.30;25.17;;;18.30;99.90;;;;;;4822619;29;20069;-76
2021/09/04 05:29:36;;;;;;;33.80;25.58;;;18.30;99.90;;;;;;4767952;29;20118;-77
2021/09/04 05:32:38;;;;;;;29.52;24.85;;;18.30;99.90;;;;;;4768558;29;20432;-77
2021/09/04 05:35:52;;;;;;;31.90;25.48;;;18.30;99.90;;;;;;4760596;29;20047;-77
2021/09/04 05:39:17;;;;;;;31.70;26.15;;;18.30;99.90;;;;;;4772861;29;20054;-77
2021/09/04 05:42:44;;;;;;;33.28;25.25;;;18.30;99.90;;;;;;4756038;29;20048;-77
2021/09/04 07:06:13;;;;;;;30.42;24.60;;;19.50;99.90;;;;;;5410754;23;15094339;-75
2021/09/04 07:10:56;;;;;;;;;;;;;;;;;;;;;
2021/09/04 08:45:07;;;;;;;26.83;20.55;;;23.00;99.90;;;;;;6184145;23;20597;-75
2021/09/04 08:48:21;;;;;;;28.67;18.88;;;23.10;99.90;;;;;;6136062;23;20650;-76
2021/09/04 08:50:59;;;;;;;22.02;19.90;;;23.20;99.90;;;;;;6068354;23;20017;-76
2021/09/04 08:54:00;;;;;;;40.72;20.23;;;23.30;99.90;;;;;;6101088;23;20018;-76
2021/09/04 08:57:56;;;;;;;29.65;20.60;;;23.40;99.90;;;;;;6045788;23;20032;-78
2021/09/04 09:04:28;;;;;;;24.15;20.00;;;23.60;99.90;;;;;;5997299;23;20078;-75
2021/09/04 09:07:01;;;;;;;24.27;19.58;;;23.70;99.90;;;;;;6012867;23;20020;-76
2021/09/04 09:09:48;;;;;;;25.83;17.88;;;23.80;99.90;;;;;;6022159;23;20129;-77
2021/09/04 09:12:17;;;;;;;;;;;24.00;99.90;;;;;;6012163;23;20015;-75
2021/09/04 09:14:57;;;;;;;23.73;20.08;;;24.10;99.90;;;;;;6035766;23;20119;-75
2021/09/04 09:18:06;;;;;;;21.98;19.80;;;24.10;99.90;;;;;;6033764;23;20031;-76
2021/09/04 09:20:41;;;;;;;21.25;18.98;;;24.10;99.90;;;;;;6011970;23;20019;-74
2021/09/04 09:23:12;;;;;;;21.52;19.27;;;24.20;99.90;;;;;;6035243;23;20023;-74
2021/09/04 09:25:42;;;;;;;25.70;18.50;;;24.30;99.90;;;;;;6090767;23;20018;-74
2021/09/04 09:28:15;;;;;;;37.78;19.65;;;24.40;99.90;;;;;;6068926;23;20029;-73
2021/09/04 09:31:01;;;;;;;21.50;17.85;;;24.50;99.90;;;;;;6069434;23;20448;-74
2021/09/04 09:33:29;;;;;;;22.70;17.08;;;24.70;99.90;;;;;;6092402;23;20138;-73
2021/09/04 09:35:57;;;;;;;24.75;19.67;;;24.80;99.90;;;;;;6068860;23;20029;-73
2021/09/04 09:38:30;;;;;;;22.58;19.00;;;24.90;99.90;;;;;;6091577;23;20054;-73
2021/09/04 09:40:58;;;;;;;24.60;18.92;;;24.80;99.90;;;;;;6148628;23;20021;-73
2021/09/04 09:43:33;;;;;;;21.73;17.83;;;24.80;99.90;;;;;;6180350;23;20073;-73
2021/09/04 09:46:07;;;;;;;19.70;16.75;;;24.90;99.90;;;;;;6182841;23;20088;-74
2021/09/04 09:48:37;;;;;;;22.00;18.55;;;24.80;99.90;;;;;;6181464;23;20079;-75
2021/09/04 09:51:07;;;;;;;24.27;19.67;;;24.90;99.90;;;;;;6181547;23;20025;-75
2021/09/04 09:53:35;;;;;;;20.15;18.05;;;24.80;99.90;;;;;;6182753;23;20017;-75
2021/09/04 09:56:02;;;;;;;19.05;16.95;;;24.70;99.90;;;;;;6170439;23;20028;-75
2021/09/04 09:58:29;;;;;;;22.25;17.35;;;24.70;99.90;;;;;;6182298;23;20021;-75
2021/09/04 10:00:58;;;;;;;19.85;16.55;;;24.80;99.90;;;;;;6183068;23;20025;-76
2021/09/04 10:03:28;;;;;;;21.00;16.58;;;25.00;99.90;;;;;;6182428;23;20028;-75
2021/09/04 10:05:56;;;;;;;26.58;18.33;;;25.10;99.90;;;;;;6173138;23;20040;-75
2021/09/04 10:08:25;;;;;;;24.25;18.95;;;25.20;99.90;;;;;;6169413;23;20017;-75
2021/09/04 10:11:05;;;;;;;21.65;16.52;;;25.20;99.90;;;;;;6182614;23;20072;-77
2021/09/04 10:13:32;;;;;;;21.88;19.33;;;25.20;99.90;;;;;;6181718;23;20057;-75
2021/09/04 10:15:59;;;;;;;22.17;17.33;;;25.20;99.90;;;;;;6182947;23;20443;-75
2021/09/04 10:18:27;;;;;;;24.77;19.45;;;25.20;99.90;;;;;;6181517;23;20029;-75
2021/09/04 10:21:25;;;;;;;21.98;16.38;;;25.20;99.90;;;;;;6182998;23;20075;-75
2021/09/04 10:23:54;;;;;;;18.08;16.15;;;25.20;99.90;;;;;;6174389;23;20024;-75
2021/09/04 10:26:28;;;;;;;18.08;16.25;;;25.20;99.90;;;;;;6181206;23;20044;-76
2021/09/04 10:29:14;;;;;;;24.25;15.82;;;25.40;99.90;;;;;;6182136;23;20017;-76
2021/09/04 10:31:48;;;;;;;17.98;15.50;;;25.50;99.90;;;;;;6170429;23;20052;-75
2021/09/04 10:34:24;;;;;;;17.38;14.50;;;25.60;99.90;;;;;;6181678;23;20087;-75
2021/09/04 10:36:58;;;;;;;21.20;15.38;;;25.70;99.90;;;;;;6182588;23;20048;-75
2021/09/04 10:39:55;;;;;;;18.83;15.70;;;25.80;99.90;;;;;;6181443;23;20049;-75
2021/09/04 10:53:49;;;;;;;;;;;;;;;;;;;;;
2021/09/04 10:57:35;;;;;;;16.00;13.30;;;26.00;99.90;;;;;;5860034;24;20077;-75
2021/09/04 12:36:07;;;;;;;;;;;;;;;;;;;;;
2021/09/04 13:04:22;;;;;;;14.45;11.57;;;28.10;99.90;;;;;;5900896;22;5746451;-75
2021/09/04 13:07:32;;;;;;;14.73;13.10;;;28.20;99.90;;;;;;6180757;23;20020;-75
2021/09/04 13:10:42;;;;;;;14.15;11.70;;;28.30;99.90;;;;;;6219734;23;20021;-75
2021/09/04 13:17:48;;;;;;;;;;;;;;;;;;;;;
2021/09/04 13:24:29;;;;;;;14.65;12.68;;;28.30;99.90;;;;;;5773242;24;20029;-75
2021/09/04 13:27:44;;;;;;;;;;;;;;;;;;;;;
2021/09/04 13:30:36;;;;;;;13.07;11.65;;;28.30;99.90;;;;;;5822995;24;20504;-75
2021/09/04 13:33:27;;;;;;;17.17;13.10;;;28.20;99.90;;;;;;5856049;24;20040;-75
2021/09/04 13:37:03;;;;;;;;;;;;;;;;;;;;;
2021/09/04 13:39:50;;;;;;;15.38;11.02;;;28.10;99.90;;;;;;5903629;24;20032;-75
2021/09/04 13:42:29;;;;;;;13.88;11.43;;;28.10;99.90;;;;;;5865878;24;20033;-75
2021/09/04 13:45:08;;;;;;;12.95;11.65;;;28.00;99.90;;;;;;5885203;24;20048;-75
2021/09/04 13:47:58;;;;;;;18.55;15.00;;;28.00;99.90;;;;;;5861349;24;20055;-75
2021/09/04 13:50:27;;;;;;;17.65;12.55;;;27.90;99.90;;;;;;6015306;23;20027;-75
2021/09/04 13:52:54;;;;;;;19.63;13.85;;;27.80;99.90;;;;;;6043180;23;20102;-75
2021/09/04 13:55:23;;;;;;;16.63;12.98;;;27.70;99.90;;;;;;6046220;23;20022;-74
2021/09/04 13:57:50;;;;;;;15.48;13.93;;;27.60;99.90;;;;;;6046574;23;20022;-75
2021/09/04 14:00:18;;;;;;;17.73;12.63;;;27.50;99.90;;;;;;6072644;23;20028;-74
2021/09/04 14:02:45;;;;;;;15.95;12.55;;;27.50;99.90;;;;;;6189622;23;20024;-75
2021/09/04 14:05:12;;;;;;;15.90;13.32;;;27.40;99.90;;;;;;6204608;23;20099;-74
2021/09/04 14:07:40;;;;;;;13.27;11.82;;;27.30;99.90;;;;;;6216768;23;20086;-74
2021/09/04 14:10:07;;;;;;;15.70;12.60;;;27.30;99.90;;;;;;6215033;23;20020;-74
2021/09/04 14:12:34;;;;;;;14.50;12.93;;;27.30;99.90;;;;;;6216117;23;20032;-74
2021/09/04 14:15:01;;;;;;;16.77;12.45;;;27.20;99.90;;;;;;6216477;23;20382;-74
2021/09/04 14:17:29;;;;;;;15.27;12.65;;;27.10;99.90;;;;;;6215892;23;20024;-74
2021/09/04 14:19:56;;;;;;;17.00;13.18;;;27.00;99.90;;;;;;6218761;23;20039;-77
2021/09/04 14:22:23;;;;;;;16.10;12.35;;;26.90;99.90;;;;;;6218087;23;20429;-74
2021/09/04 14:24:51;;;;;;;15.00;10.73;;;26.80;99.90;;;;;;6218625;23;20016;-74
2021/09/04 14:27:18;;;;;;;15.03;12.03;;;26.70;99.90;;;;;;6204534;23;20020;-75
2021/09/04 14:29:44;;;;;;;12.48;10.90;;;26.70;99.90;;;;;;6217922;23;20020;-74
2021/09/04 14:32:12;;;;;;;12.63;11.30;;;26.70;99.90;;;;;;6217810;23;20024;-75
2021/09/04 14:34:39;;;;;;;14.95;11.88;;;26.80;99.90;;;;;;6219203;23;20096;-75
2021/09/04 14:37:06;;;;;;;13.80;11.70;;;26.90;99.90;;;;;;6189884;23;20057;-75
2021/09/04 14:39:33;;;;;;;15.32;13.02;;;26.90;99.90;;;;;;6218436;23;20016;-74
2021/09/04 14:42:00;;;;;;;17.38;12.80;;;27.00;99.90;;;;;;6218478;23;20436;-74
2021/09/04 14:44:27;;;;;;;14.30;12.27;;;27.00;99.90;;;;;;6217101;23;20036;-74
2021/09/04 14:46:54;;;;;;;20.08;14.13;;;26.90;99.90;;;;;;6206175;23;20022;-74
2021/09/04 14:49:21;;;;;;;18.23;12.73;;;26.80;99.90;;;;;;6217518;23;20020;-74
2021/09/04 14:51:48;;;;;;;14.77;11.85;;;26.60;99.90;;;;;;6218632;23;20091;-75
2021/09/04 14:54:15;;;;;;;13.27;11.90;;;26.50;99.90;;;;;;6217312;23;20321;-74
2021/09/04 14:56:44;;;;;;;14.95;12.80;;;26.50;99.90;;;;;;6218064;23;20082;-74
2021/09/04 14:59:11;;;;;;;16.42;11.75;;;26.50;99.90;;;;;;6217212;23;20024;-75
2021/09/04 15:01:38;;;;;;;15.70;12.77;;;26.50;99.90;;;;;;6218107;23;20019;-75
2021/09/04 15:04:06;;;;;;;18.23;12.13;;;26.50;99.90;;;;;;6217645;23;20095;-75
2021/09/04 15:06:34;;;;;;;15.60;12.43;;;26.50;99.90;;;;;;6218112;23;20301;-75
2021/09/04 15:09:01;;;;;;;12.48;11.13;;;26.40;99.90;;;;;;6206962;23;20026;-75
2021/09/04 15:11:28;;;;;;;14.77;11.00;;;26.40;99.90;;;;;;6216315;23;20991;-75
2021/09/04 15:13:56;;;;;;;13.25;10.75;;;26.40;99.90;;;;;;6217377;23;20016;-75
2021/09/04 15:16:25;;;;;;;13.63;12.15;;;26.40;99.90;;;;;;6204819;23;20437;-76
2021/09/04 15:18:53;;;;;;;17.88;11.40;;;26.50;99.90;;;;;;6217469;23;20042;-75
2021/09/04 15:21:20;;;;;;;13.63;11.27;;;26.50;99.90;;;;;;6205183;23;20091;-75
2021/09/04 15:23:47;;;;;;;12.45;11.15;;;26.50;99.90;;;;;;6217850;23;20099;-75
2021/09/04 15:26:14;;;;;;;16.20;11.85;;;26.40;99.90;;;;;;6216903;23;20016;-76
2021/09/04 15:28:41;;;;;;;12.88;10.68;;;26.40;99.90;;;;;;6218126;23;20023;-75
2021/09/04 15:31:08;;;;;;;12.88;11.38;;;26.50;99.90;;;;;;6216734;23;20114;-76
2021/09/04 15:33:35;;;;;;;13.77;11.10;;;26.50;99.90;;;;;;6217755;23;20448;-75
2021/09/04 15:36:06;;;;;;;11.43;10.13;;;26.40;99.90;;;;;;6218273;23;20428;-76
2021/09/04 15:38:34;;;;;;;12.20;10.75;;;26.50;99.90;;;;;;6217005;23;20020;-75
2021/09/04 15:41:04;;;;;;;12.70;10.40;;;26.60;99.90;;;;;;6217835;23;20012;-75
2021/09/04 15:43:33;;;;;;;11.35;9.77;;;26.60;99.90;;;;;;6216847;23;20020;-75
2021/09/04 15:46:02;;;;;;;12.90;10.50;;;26.70;99.90;;;;;;6218291;23;20103;-75
2021/09/04 15:48:29;;;;;;;16.00;11.25;;;26.70;99.90;;;;;;6216961;23;20028;-75
2021/09/04 15:50:56;;;;;;;13.75;10.55;;;26.70;99.90;;;;;;6217192;23;20043;-75
2021/09/04 15:53:23;;;;;;;13.38;12.07;;;26.70;99.90;;;;;;6217458;23;20437;-75
2021/09/04 15:56:23;;;;;;;16.73;10.10;;;26.50;99.90;;;;;;6218018;23;20020;-76
2021/09/04 15:59:06;;;;;;;;;;;26.40;99.90;;;;;;6203555;23;20032;-76
2021/09/04 16:01:33;;;;;;;16.50;10.48;;;26.30;99.90;;;;;;6188378;23;19915;-76
2021/09/04 16:04:07;;;;;;;10.15;8.77;;;26.40;99.90;;;;;;6192012;23;20040;-76
2021/09/04 16:06:39;;;;;;;10.82;9.38;;;26.40;99.90;;;;;;6204234;23;20351;-76
2021/09/04 16:09:10;;;;;;;11.15;9.13;;;26.40;99.90;;;;;;6201627;23;20043;-76
2021/09/04 16:11:38;;;;;;;13.15;9.75;;;26.30;99.90;;;;;;6194520;23;20032;-76
2021/09/04 16:14:05;;;;;;;11.07;9.80;;;26.30;99.90;;;;;;6216041;23;20042;-75
2021/09/04 16:16:36;;;;;;;9.52;8.60;;;26.30;99.90;;;;;;6218394;23;20016;-75
2021/09/04 16:19:04;;;;;;;12.77;8.23;;;26.30;99.90;;;;;;6217091;23;20070;-75
2021/09/04 16:21:31;;;;;;;10.52;8.50;;;26.30;99.90;;;;;;6200250;23;20023;-75
2021/09/04 16:23:59;;;;;;;14.00;8.73;;;26.30;99.90;;;;;;6214819;23;20024;-75
2021/09/04 16:26:26;;;;;;;13.07;8.90;;;26.40;99.90;;;;;;6198764;23;20020;-75
2021/09/04 16:28:53;;;;;;;13.57;10.48;;;26.40;99.90;;;;;;6214699;23;20090;-75
2021/09/04 16:31:23;;;;;;;10.85;8.95;;;26.40;99.90;;;;;;6186513;23;20090;-75
2021/09/04 16:33:50;;;;;;;11.23;9.18;;;26.40;99.90;;;;;;6213931;23;20020;-75
2021/09/04 16:36:23;;;;;;;10.45;9.32;;;26.30;99.90;;;;;;6212604;23;20051;-75
2021/09/04 16:38:52;;;;;;;13.73;11.05;;;26.30;99.90;;;;;;6203238;23;20111;-75
2021/09/04 16:41:26;;;;;;;13.63;9.90;;;26.10;99.90;;;;;;6171115;23;20099;-76
2021/09/04 16:44:04;;;;;;;10.25;9.23;;;26.00;99.90;;;;;;6183769;23;20535;-76
2021/09/04 16:46:44;;;;;;;14.45;8.85;;;25.80;99.90;;;;;;6155619;23;20441;-76
2021/09/04 16:49:15;;;;;;;10.30;8.02;;;25.60;99.90;;;;;;6198744;23;20017;-75
2021/09/04 16:51:45;;;;;;;9.70;8.02;;;25.30;99.90;;;;;;6201967;23;20444;-76
2021/09/04 16:54:18;;;;;;;8.98;7.72;;;25.10;99.90;;;;;;6212748;23;20016;-76
2021/09/04 16:56:52;;;;;;;11.73;7.72;;;25.00;99.90;;;;;;6200137;23;20091;-76
2021/09/04 16:59:21;;;;;;;7.63;6.72;;;24.90;99.90;;;;;;6201847;23;20059;-76
2021/09/04 17:02:09;;;;;;;11.30;7.90;;;24.90;99.90;;;;;;6215445;23;20098;-76
2021/09/04 17:04:36;;;;;;;10.83;7.93;;;24.90;99.90;;;;;;6214058;23;20078;-76
2021/09/04 17:07:07;;;;;;;9.00;8.10;;;24.90;99.90;;;;;;6214262;23;20381;-76
2021/09/04 17:09:37;;;;;;;8.63;7.72;;;24.80;99.90;;;;;;6211934;23;20369;-75
2021/09/04 17:12:09;;;;;;;8.77;7.97;;;24.70;99.90;;;;;;6214702;23;20087;-76
2021/09/04 17:14:36;;;;;;;8.73;7.80;;;24.70;99.90;;;;;;6213147;23;20074;-76
2021/09/04 17:17:08;;;;;;;10.93;8.38;;;24.70;99.90;;;;;;6199743;23;20028;-76
2021/09/04 17:19:37;;;;;;;10.30;8.32;;;24.80;99.90;;;;;;6202056;23;20054;-76
2021/09/04 17:22:07;;;;;;;9.60;7.50;;;24.80;99.90;;;;;;6193609;23;20039;-76
2021/09/04 17:24:34;;;;;;;7.93;7.13;;;24.90;99.90;;;;;;6200670;23;20091;-76
2021/09/04 17:27:13;;;;;;;7.93;6.53;;;24.70;99.90;;;;;;6215568;23;20028;-76
2021/09/04 17:29:40;;;;;;;6.07;5.10;;;24.60;99.90;;;;;;6214339;23;20020;-76
2021/09/04 17:32:10;;;;;;;7.30;5.55;;;24.60;99.90;;;;;;6198697;23;20058;-76
2021/09/04 17:34:41;;;;;;;6.55;4.97;;;24.60;99.90;;;;;;6203779;23;20105;-76
2021/09/04 17:37:13;;;;;;;4.63;4.22;;;24.60;99.90;;;;;;6199754;23;20494;-76
2021/09/04 17:39:54;;;;;;;6.05;4.63;;;24.60;99.90;;;;;;6203234;23;20492;-76
2021/09/04 17:42:26;;;;;;;4.45;4.05;;;24.60;99.90;;;;;;6215139;23;20022;-76
2021/09/04 17:44:55;;;;;;;4.32;3.85;;;24.60;99.90;;;;;;6216316;23;20070;-76
2021/09/04 17:47:22;;;;;;;4.68;4.07;;;24.60;99.90;;;;;;6200837;23;20024;-76
2021/09/04 17:49:58;;;;;;;4.30;3.90;;;24.60;99.90;;;;;;6215821;23;20030;-76
2021/09/04 17:52:25;;;;;;;5.93;4.38;;;24.60;99.90;;;;;;6199829;23;20059;-76
2021/09/04 17:54:55;;;;;;;4.53;4.07;;;24.60;99.90;;;;;;6215778;23;20024;-76
2021/09/04 17:57:27;;;;;;;4.70;4.30;;;24.70;99.90;;;;;;6188908;23;20110;-76
2021/09/04 17:59:59;;;;;;;4.75;4.10;;;24.70;99.90;;;;;;6215508;23;20463;-76
2021/09/04 18:02:28;;;;;;;6.75;6.10;;;24.80;99.90;;;;;;6198443;23;20024;-76
2021/09/04 18:06:19;;;;;;;55.23;43.43;;;24.70;99.90;;;;;;6214093;23;20469;-76
2021/09/04 18:08:33;;;;;;;26.25;19.90;;;24.70;99.90;;;;;;5971881;23;20027;-76
2021/09/04 18:17:58;;;;;;;13.27;11.98;;;24.90;99.90;;;;;;5873556;24;20455;-78
2021/09/04 18:20:23;;;;;;;6.75;6.05;;;25.10;99.90;;;;;;5887242;24;20387;-76
2021/09/04 18:23:05;;;;;;;11.20;8.00;;;25.20;99.90;;;;;;5937494;24;20183;-77
2021/09/04 18:25:33;;;;;;;31.92;26.00;;;25.00;99.90;;;;;;5980947;23;20047;-76
2021/09/04 18:28:00;;;;;;;13.30;11.93;;;24.90;99.90;;;;;;6005278;23;20027;-76
2021/09/04 18:30:27;;;;;;;8.82;7.43;;;24.70;99.90;;;;;;6003852;23;20903;-76
2021/09/04 18:32:54;;;;;;;9.40;7.53;;;24.60;99.90;;;;;;6004887;23;20153;-76
2021/09/04 18:35:21;;;;;;;7.40;6.70;;;24.40;99.90;;;;;;6004284;23;20496;-76
2021/09/04 18:37:48;;;;;;;7.97;6.95;;;24.20;99.90;;;;;;5981874;23;20095;-76
2021/09/04 18:40:15;;;;;;;16.35;14.52;;;24.10;99.90;;;;;;6060894;23;20401;-76
2021/09/04 18:42:43;;;;;;;9.55;8.60;;;23.90;99.90;;;;;;6091120;23;20159;-76
2021/09/04 18:45:10;;;;;;;11.38;8.48;;;23.70;99.90;;;;;;6065456;23;20347;-75
2021/09/04 18:47:37;;;;;;;8.75;7.85;;;23.50;99.90;;;;;;6066688;23;20022;-75
2021/09/04 18:50:05;;;;;;;7.53;6.82;;;23.40;99.90;;;;;;6066300;23;20054;-75
2021/09/04 18:52:33;;;;;;;7.88;6.53;;;23.20;99.90;;;;;;6066063;23;20053;-75
2021/09/04 18:55:00;;;;;;;8.65;6.95;;;23.10;99.90;;;;;;6066703;23;20022;-75
2021/09/04 18:57:27;;;;;;;7.45;6.75;;;23.00;99.90;;;;;;6121456;23;20029;-75
2021/09/04 18:59:54;;;;;;;8.65;7.72;;;22.80;99.90;;;;;;6185483;23;20413;-74
2021/09/04 19:02:21;;;;;;;8.48;7.68;;;22.60;99.90;;;;;;6185484;23;20021;-75
2021/09/04 19:04:48;;;;;;;10.25;9.32;;;22.50;99.90;;;;;;6157660;23;20027;-75
2021/09/04 19:07:15;;;;;;;10.20;9.30;;;22.40;99.90;;;;;;6155486;23;20031;-75
2021/09/04 19:09:42;;;;;;;12.98;9.90;;;22.20;99.90;;;;;;6155680;23;20092;-74
2021/09/04 19:12:09;;;;;;;11.70;10.55;;;22.10;99.90;;;;;;6155540;23;20017;-75
2021/09/04 19:14:36;;;;;;;12.43;11.13;;;22.00;99.90;;;;;;6155421;23;20484;-74
2021/09/04 19:17:04;;;;;;;12.70;11.40;;;21.80;99.90;;;;;;6155336;23;20383;-74
2021/09/04 19:19:31;;;;;;;15.07;11.88;;;21.60;99.90;;;;;;6155295;23;20024;-74
2021/09/04 19:21:58;;;;;;;15.55;12.65;;;21.40;99.90;;;;;;6156194;23;20334;-74
2021/09/04 19:24:25;;;;;;;13.85;11.55;;;21.30;99.90;;;;;;6155094;23;20039;-75
2021/09/04 19:26:52;;;;;;;11.68;10.57;;;21.10;99.90;;;;;;6155920;23;20075;-75
2021/09/04 19:29:19;;;;;;;12.50;11.30;;;21.00;99.90;;;;;;6155083;23;20438;-74
2021/09/04 19:31:46;;;;;;;16.50;12.13;;;20.80;99.90;;;;;;6156439;23;20084;-75
2021/09/04 19:34:13;;;;;;;12.75;11.50;;;20.70;99.90;;;;;;6154931;23;20017;-75
2021/09/04 19:36:40;;;;;;;14.85;11.63;;;20.60;99.90;;;;;;6156196;23;20027;-75
2021/09/04 19:39:08;;;;;;;15.95;14.30;;;20.50;99.90;;;;;;6155090;23;20021;-74
2021/09/04 19:41:35;;;;;;;15.63;13.77;;;20.50;99.90;;;;;;6155893;23;20446;-75
2021/09/04 19:44:02;;;;;;;23.80;18.73;;;20.30;99.90;;;;;;6156098;23;20025;-75
2021/09/04 19:46:29;;;;;;;21.63;18.63;;;20.20;99.90;;;;;;6154947;23;20029;-75
2021/09/04 19:48:56;;;;;;;19.25;17.25;;;20.10;99.90;;;;;;6156261;23;20091;-74
2021/09/04 19:51:23;;;;;;;20.83;17.73;;;20.00;99.90;;;;;;6155003;23;20021;-74
2021/09/04 19:53:50;;;;;;;22.20;17.90;;;19.90;99.90;;;;;;6155428;23;20021;-75
2021/09/04 19:56:17;;;;;;;20.13;18.02;;;19.80;99.90;;;;;;6155324;23;20056;-74
2021/09/04 19:58:43;;;;;;;22.80;18.05;;;19.70;99.90;;;;;;6155722;23;20021;-74
2021/09/04 20:01:11;;;;;;;19.13;17.13;;;19.70;99.90;;;;;;6154606;23;20017;-74
2021/09/04 20:03:48;;;;;;;19.10;17.08;;;19.60;99.90;;;;;;6155646;23;20064;-75
2021/09/04 20:06:16;;;;;;;19.38;17.15;;;19.60;99.90;;;;;;6140726;23;20442;-75
2021/09/04 20:08:42;;;;;;;21.50;18.38;;;19.60;99.90;;;;;;6155894;23;20525;-74
2021/09/04 20:11:09;;;;;;;19.80;17.80;;;19.60;99.90;;;;;;6154188;23;20021;-74
2021/09/04 20:13:36;;;;;;;19.80;17.85;;;19.60;99.90;;;;;;6155493;23;20013;-74
2021/09/04 20:16:04;;;;;;;19.40;17.35;;;19.50;99.90;;;;;;6155533;23;20470;-74
2021/09/04 20:18:31;;;;;;;20.55;18.38;;;19.50;99.90;;;;;;6153989;23;20027;-74
2021/09/04 20:20:59;;;;;;;19.83;17.90;;;19.50;99.90;;;;;;6155498;23;20453;-74
2021/09/04 20:23:26;;;;;;;21.67;19.20;;;19.40;99.90;;;;;;6154657;23;20036;-74
2021/09/04 20:25:55;;;;;;;22.33;19.92;;;19.30;99.90;;;;;;6155321;23;20028;-74